createdAt,value
2022-12-22T00:02:57.065Z,45.78
2022-12-22T00:08:18.655Z,46.97
2022-12-22T00:13:39.687Z,44.30
2022-12-22T00:19:00.827Z,44.58
2022-12-22T00:24:23.387Z,43.47
2022-12-22T00:29:46.022Z,59.15
2022-12-22T00:35:07.804Z,49.40
2022-12-22T00:40:37.051Z,52.80
2022-12-22T00:45:58.459Z,45.50
2022-12-22T00:51:19.824Z,49.93
2022-12-22T00:56:41.068Z,50.35
2022-12-22T01:02:02.633Z,46.88
2022-12-22T01:07:24.363Z,43.90
2022-12-22T01:12:46.961Z,55.35
2022-12-22T01:18:08.255Z,54.10
2022-12-22T01:23:30.049Z,48.05
2022-12-22T01:28:50.992Z,52.15
2022-12-22T01:34:12.194Z,56.37
2022-12-22T01:39:33.372Z,49.20
2022-12-22T01:44:54.248Z,51.20
2022-12-22T01:50:15.561Z,46.78
2022-12-22T01:55:41.531Z,46.90
2022-12-22T02:01:04.415Z,65.17
2022-12-22T02:06:32.811Z,60.53
2022-12-22T02:12:20.835Z,57.37
2022-12-22T02:17:58.692Z,47.63
2022-12-22T02:23:33.845Z,54.13
2022-12-22T02:28:55.302Z,52.67
2022-12-22T02:34:16.358Z,43.45
2022-12-22T02:40:03.579Z,49.87
2022-12-22T02:45:56.660Z,43.92
2022-12-22T02:51:35.927Z,49.17
2022-12-22T02:56:58.502Z,49.50
2022-12-22T03:02:20.114Z,48.55
2022-12-22T03:07:41.366Z,49.93
2022-12-22T03:13:02.820Z,49.65
2022-12-22T03:18:26.779Z,51.00
2022-12-22T03:23:48.733Z,33.20
2022-12-22T03:28:51.329Z,40.85
2022-12-22T03:33:53.882Z,45.23
2022-12-22T03:38:56.538Z,44.65
2022-12-22T03:44:17.610Z,47.75
2022-12-22T03:49:22.619Z,38.43
2022-12-22T03:54:26.714Z,42.85
2022-12-22T03:59:29.347Z,47.53
2022-12-22T04:04:32.022Z,47.80
2022-12-22T04:09:34.648Z,50.13
2022-12-22T04:14:37.299Z,37.60
2022-12-22T04:19:39.836Z,45.97
2022-12-22T04:24:42.374Z,35.23
2022-12-22T04:29:44.958Z,46.70
2022-12-22T04:34:47.503Z,47.53
2022-12-22T04:39:50.435Z,41.67
2022-12-22T04:44:53.106Z,47.08
2022-12-22T04:49:56.800Z,42.97
2022-12-22T04:54:59.492Z,44.97
2022-12-22T05:00:02.424Z,45.75
2022-12-22T05:05:05.475Z,45.17
2022-12-22T05:10:09.130Z,38.60
2022-12-22T05:15:12.053Z,49.23
2022-12-22T05:20:14.774Z,38.58
2022-12-22T05:25:18.072Z,43.90
2022-12-22T05:30:21.058Z,38.60
2022-12-22T05:35:23.899Z,40.00
2022-12-22T05:40:26.909Z,38.80
2022-12-22T05:45:29.921Z,39.47
2022-12-22T05:50:32.943Z,38.42
2022-12-22T05:55:39.711Z,40.23
2022-12-22T06:00:42.421Z,41.72
2022-12-22T06:05:45.113Z,49.13
2022-12-22T06:10:47.763Z,38.58
2022-12-22T06:15:50.450Z,39.70
2022-12-22T06:20:53.738Z,36.13
2022-12-22T06:25:58.354Z,33.45
2022-12-22T06:31:01.066Z,36.37
2022-12-22T06:36:08.297Z,40.42
2022-12-22T06:41:10.950Z,50.45
2022-12-22T06:46:13.789Z,42.47
2022-12-22T06:51:16.612Z,35.47
2022-12-22T06:56:19.175Z,39.00
2022-12-22T07:01:21.936Z,54.80
2022-12-22T07:06:24.721Z,55.85
2022-12-22T07:11:27.462Z,63.83
2022-12-22T07:16:30.188Z,64.75
2022-12-22T07:21:33.208Z,50.03
2022-12-22T07:26:35.971Z,52.75
2022-12-22T07:31:38.775Z,36.67
2022-12-22T07:36:41.667Z,8.40
2022-12-22T07:42:02.781Z,27.33
2022-12-22T07:47:05.637Z,19.43
2022-12-22T07:52:08.850Z,18.02
2022-12-22T07:57:11.522Z,33.85
2022-12-22T08:02:14.279Z,36.37
2022-12-22T08:07:16.995Z,43.38
2022-12-22T08:12:19.735Z,57.40
2022-12-22T08:17:22.398Z,51.55
2022-12-22T08:22:25.264Z,52.60
2022-12-22T08:27:40.166Z,60.43
2022-12-22T08:32:43.707Z,54.92
2022-12-22T08:37:47.608Z,51.73
2022-12-22T08:42:53.697Z,52.55
2022-12-22T08:47:56.386Z,48.88
2022-12-22T08:53:04.310Z,55.40
2022-12-22T08:58:07.045Z,42.08
2022-12-22T09:03:09.800Z,58.30
2022-12-22T09:08:12.558Z,52.58
2022-12-22T09:13:15.281Z,49.80
2022-12-22T09:18:17.927Z,52.87
2022-12-22T09:23:20.722Z,55.33
2022-12-22T09:28:23.412Z,51.03
2022-12-22T09:33:26.886Z,39.60
2022-12-22T09:38:30.243Z,47.63
2022-12-22T09:43:32.965Z,40.47
2022-12-22T09:48:37.532Z,38.42
2022-12-22T09:53:41.065Z,41.30
2022-12-22T09:58:44.716Z,38.65
2022-12-22T10:04:00.093Z,53.60
2022-12-22T10:09:43.982Z,61.53
2022-12-22T10:14:49.201Z,59.85
2022-12-22T10:19:54.702Z,58.43
2022-12-22T10:24:58.546Z,58.55
2022-12-22T10:30:22.542Z,50.47
2022-12-22T10:35:25.658Z,56.57
2022-12-22T10:40:30.708Z,57.78
2022-12-22T10:45:33.623Z,52.00
2022-12-22T10:50:48.938Z,55.08
2022-12-22T10:56:06.547Z,58.22
2022-12-22T11:01:11.988Z,57.13
2022-12-22T11:06:14.717Z,55.28
2022-12-22T11:11:38.164Z,55.83
2022-12-22T11:16:57.361Z,64.03
2022-12-22T11:22:15.295Z,64.03
2022-12-22T11:27:30.294Z,60.13
2022-12-22T11:32:47.665Z,59.63
2022-12-22T11:37:58.718Z,64.47
2022-12-22T11:43:38.174Z,66.85
2022-12-22T11:48:49.605Z,63.85
2022-12-22T11:54:20.521Z,63.53
2022-12-22T11:59:51.481Z,65.97
2022-12-22T12:05:45.418Z,83.40
2022-12-22T12:11:24.567Z,68.75
2022-12-22T12:16:44.236Z,29.63
2022-12-22T12:21:52.309Z,32.73
2022-12-22T12:27:19.787Z,28.98
2022-12-22T12:32:35.890Z,17.00
2022-12-22T12:37:41.810Z,16.42
2022-12-22T12:42:47.224Z,17.17
2022-12-22T12:47:50.120Z,12.07
2022-12-22T12:52:52.839Z,11.48
2022-12-22T12:57:56.482Z,15.03
2022-12-22T13:03:01.348Z,14.43
2022-12-22T13:08:15.755Z,11.98
2022-12-22T13:13:27.231Z,8.23
2022-12-22T13:18:30.212Z,12.13
2022-12-22T13:24:22.375Z,8.37
2022-12-22T13:29:27.626Z,9.15
2022-12-22T13:34:46.085Z,9.77
2022-12-22T13:40:20.762Z,8.90
2022-12-22T13:45:35.550Z,9.43
2022-12-22T13:50:43.694Z,10.23
2022-12-22T13:55:48.634Z,15.60
2022-12-22T14:01:15.482Z,11.38
2022-12-22T14:06:40.636Z,12.00
2022-12-22T14:11:51.596Z,15.63
2022-12-22T14:16:58.966Z,14.80
2022-12-22T14:22:05.931Z,13.85
2022-12-22T14:27:24.145Z,10.18
2022-12-22T14:32:42.308Z,9.60
2022-12-22T14:37:45.047Z,13.32
2022-12-22T14:42:47.736Z,12.70
2022-12-22T14:47:51.170Z,11.32
2022-12-22T14:53:00.214Z,8.55
2022-12-22T14:58:33.132Z,8.63
2022-12-22T15:03:38.436Z,5.57
2022-12-22T15:08:43.768Z,4.90
2022-12-22T15:13:48.558Z,4.60
2022-12-22T15:18:52.985Z,6.20
2022-12-22T15:23:55.853Z,6.70
2022-12-22T15:28:58.961Z,9.57
2022-12-22T15:34:04.768Z,9.50
2022-12-22T15:39:15.012Z,5.85
2022-12-22T15:44:18.102Z,4.40
2022-12-22T15:49:24.858Z,7.17
2022-12-22T15:54:30.020Z,5.65
2022-12-22T15:59:33.055Z,5.23
2022-12-22T16:04:36.026Z,4.93
2022-12-22T16:09:44.462Z,3.78
2022-12-22T16:14:51.139Z,5.60
2022-12-22T16:19:54.123Z,10.77
2022-12-22T16:24:57.091Z,7.40
2022-12-22T16:30:00.061Z,8.32
2022-12-22T16:35:12.056Z,5.40
2022-12-22T16:40:15.541Z,8.40
2022-12-22T16:45:29.042Z,9.65
2022-12-22T16:50:34.818Z,5.43
2022-12-22T16:55:37.809Z,5.85
2022-12-22T17:00:44.047Z,9.88
2022-12-22T17:05:55.847Z,7.73
2022-12-22T17:11:06.241Z,8.07
2022-12-22T17:16:19.929Z,9.53
2022-12-22T17:21:23.026Z,7.53
2022-12-22T17:26:26.467Z,6.95
2022-12-22T17:31:29.371Z,12.10
2022-12-22T17:36:37.864Z,11.95
2022-12-22T17:41:41.111Z,10.03
2022-12-22T17:46:44.007Z,9.45
2022-12-22T17:51:47.332Z,7.53
2022-12-22T17:56:50.231Z,5.97
2022-12-22T18:01:53.134Z,8.45
2022-12-22T18:06:56.318Z,8.37
2022-12-22T18:11:58.965Z,6.00
2022-12-22T18:17:01.766Z,10.70
2022-12-22T18:22:04.703Z,10.40
2022-12-22T18:27:12.583Z,7.45
2022-12-22T18:32:25.219Z,7.43
2022-12-22T18:37:30.051Z,9.10
2022-12-22T18:42:34.821Z,8.65
2022-12-22T18:47:37.744Z,11.60
2022-12-22T18:52:40.706Z,8.70
2022-12-22T18:57:47.472Z,7.93
2022-12-22T19:02:53.045Z,8.27
2022-12-22T19:07:56.133Z,6.57
2022-12-22T19:12:58.837Z,6.60
2022-12-22T19:18:01.741Z,10.52
2022-12-22T19:23:04.450Z,8.10
2022-12-22T19:28:15.995Z,7.95
2022-12-22T19:33:35.964Z,7.30
2022-12-22T19:38:38.900Z,7.57
2022-12-22T19:43:41.876Z,6.72
2022-12-22T19:48:47.902Z,8.03
2022-12-22T19:53:50.823Z,9.88
2022-12-22T19:58:55.110Z,6.22
2022-12-22T20:03:57.987Z,6.87
2022-12-22T20:09:03.587Z,6.93
2022-12-22T20:14:06.484Z,8.97
2022-12-22T20:19:16.778Z,7.32
2022-12-22T20:24:22.731Z,7.88
2022-12-22T20:29:25.605Z,7.60
2022-12-22T20:34:28.352Z,7.88
2022-12-22T20:39:31.223Z,5.50
2022-12-22T20:44:34.072Z,6.10
2022-12-22T20:49:37.098Z,8.43
2022-12-22T20:54:40.290Z,5.90
2022-12-22T20:59:44.687Z,5.10
2022-12-22T21:04:47.555Z,6.73
2022-12-22T21:09:50.462Z,8.82
2022-12-22T21:14:53.293Z,7.10
2022-12-22T21:19:56.044Z,6.03
2022-12-22T21:24:58.871Z,8.98
2022-12-22T21:30:01.748Z,7.97
2022-12-22T21:35:08.308Z,7.15
2022-12-22T21:40:18.832Z,7.03
2022-12-22T21:45:26.043Z,5.17
2022-12-22T21:50:32.870Z,7.57
2022-12-22T21:55:38.321Z,10.73
2022-12-22T22:00:45.501Z,8.27
2022-12-22T22:05:48.283Z,6.97
2022-12-22T22:10:51.509Z,4.03
2022-12-22T22:15:54.322Z,7.30
2022-12-22T22:20:56.979Z,6.23
2022-12-22T22:26:00.222Z,7.30
2022-12-22T22:31:08.808Z,5.78
2022-12-22T22:36:11.713Z,6.13
2022-12-22T22:41:14.318Z,6.97
2022-12-22T22:46:17.017Z,6.77
2022-12-22T22:51:20.136Z,10.18
2022-12-22T22:56:22.989Z,11.13
2022-12-22T23:01:25.810Z,7.57
2022-12-22T23:06:28.495Z,5.70
2022-12-22T23:11:31.136Z,6.97
2022-12-22T23:16:38.163Z,6.47
2022-12-22T23:21:42.087Z,5.35
2022-12-22T23:26:44.773Z,7.80
2022-12-22T23:31:47.498Z,7.00
2022-12-22T23:36:50.124Z,5.40
2022-12-22T23:41:52.710Z,7.35
2022-12-22T23:46:55.380Z,7.82
2022-12-22T23:51:57.987Z,6.00
2022-12-22T23:57:00.598Z,6.38
